sensor_id;sensor_type;location;lat;lon;timestamp;pressure;altitude;pressure_sealevel;temperature;humidity
61086;BME280;46967;48.876;2.136;2023-05-23T00:01:48;101821.81;;;42.61;15.47
61086;BME280;46967;48.876;2.136;2023-05-23T00:04:14;101825.59;;;42.84;15.38
61086;BME280;46967;48.876;2.136;2023-05-23T00:06:43;101818.59;;;43.00;15.06
61086;BME280;46967;48.876;2.136;2023-05-23T00:09:13;101816.09;;;42.75;15.20
61086;BME280;46967;48.876;2.136;2023-05-23T00:11:39;101811.22;;;42.88;15.19
61086;BME280;46967;48.876;2.136;2023-05-23T00:14:12;101812.06;;;42.89;15.18
61086;BME280;46967;48.876;2.136;2023-05-23T00:16:42;101810.09;;;42.18;15.85
61086;BME280;46967;48.876;2.136;2023-05-23T00:19:09;101815.09;;;42.33;15.63
61086;BME280;46967;48.876;2.136;2023-05-23T00:21:35;101817.53;;;42.11;15.72
61086;BME280;46967;48.876;2.136;2023-05-23T00:24:01;101822.16;;;41.62;16.12
61086;BME280;46967;48.876;2.136;2023-05-23T00:26:27;101817.16;;;41.22;16.56
61086;BME280;46967;48.876;2.136;2023-05-23T00:28:54;101807.16;;;42.02;15.75
61086;BME280;46967;48.876;2.136;2023-05-23T00:31:20;101806.31;;;41.89;15.62
61086;BME280;46967;48.876;2.136;2023-05-23T00:33:46;101807.38;;;41.88;15.87
61086;BME280;46967;48.876;2.136;2023-05-23T00:36:11;101816.00;;;41.85;15.98
61086;BME280;46967;48.876;2.136;2023-05-23T00:38:37;101819.81;;;41.66;15.92
61086;BME280;46967;48.876;2.136;2023-05-23T00:41:04;101814.44;;;41.77;15.89
61086;BME280;46967;48.876;2.136;2023-05-23T00:43:29;101821.69;;;42.14;15.67
61086;BME280;46967;48.876;2.136;2023-05-23T00:45:55;101827.91;;;42.03;15.75
61086;BME280;46967;48.876;2.136;2023-05-23T00:48:21;101823.53;;;41.71;16.00
61086;BME280;46967;48.876;2.136;2023-05-23T00:50:46;101817.84;;;41.73;15.81
61086;BME280;46967;48.876;2.136;2023-05-23T00:53:12;101816.34;;;41.21;16.15
61086;BME280;46967;48.876;2.136;2023-05-23T00:55:37;101811.44;;;41.49;15.87
61086;BME280;46967;48.876;2.136;2023-05-23T00:58:10;101812.13;;;41.93;15.75
61086;BME280;46967;48.876;2.136;2023-05-23T01:00:36;101812.06;;;42.11;15.67
61086;BME280;46967;48.876;2.136;2023-05-23T01:03:03;101811.56;;;42.03;15.41
61086;BME280;46967;48.876;2.136;2023-05-23T01:05:29;101810.41;;;42.10;15.44
61086;BME280;46967;48.876;2.136;2023-05-23T01:07:54;101802.63;;;42.14;15.52
61086;BME280;46967;48.876;2.136;2023-05-23T01:10:25;101805.84;;;41.92;15.59
61086;BME280;46967;48.876;2.136;2023-05-23T01:15:27;101806.56;;;41.99;15.75
61086;BME280;46967;48.876;2.136;2023-05-23T01:18:36;101802.41;;;41.97;15.56
61086;BME280;46967;48.876;2.136;2023-05-23T01:21:05;101800.97;;;42.13;15.24
61086;BME280;46967;48.876;2.136;2023-05-23T01:23:35;101809.28;;;42.18;15.44
61086;BME280;46967;48.876;2.136;2023-05-23T01:26:27;101809.34;;;42.11;15.27
61086;BME280;46967;48.876;2.136;2023-05-23T01:29:02;101817.09;;;41.47;15.62
61086;BME280;46967;48.876;2.136;2023-05-23T01:31:36;101817.28;;;41.34;16.06
61086;BME280;46967;48.876;2.136;2023-05-23T01:34:02;101811.22;;;41.32;16.12
61086;BME280;46967;48.876;2.136;2023-05-23T01:36:28;101813.78;;;41.45;15.80
61086;BME280;46967;48.876;2.136;2023-05-23T01:38:53;101818.09;;;41.53;15.98
61086;BME280;46967;48.876;2.136;2023-05-23T01:41:19;101824.16;;;41.73;15.70
61086;BME280;46967;48.876;2.136;2023-05-23T01:43:44;101829.09;;;41.02;16.07
61086;BME280;46967;48.876;2.136;2023-05-23T01:46:11;101824.69;;;41.45;16.08
61086;BME280;46967;48.876;2.136;2023-05-23T01:48:37;101828.22;;;40.83;16.48
61086;BME280;46967;48.876;2.136;2023-05-23T01:51:03;101829.09;;;41.21;16.02
61086;BME280;46967;48.876;2.136;2023-05-23T01:53:29;101819.97;;;41.15;16.28
61086;BME280;46967;48.876;2.136;2023-05-23T01:55:56;101822.91;;;41.69;15.92
61086;BME280;46967;48.876;2.136;2023-05-23T01:58:21;101815.84;;;40.87;16.67
61086;BME280;46967;48.876;2.136;2023-05-23T02:00:46;101816.25;;;41.09;16.31
61086;BME280;46967;48.876;2.136;2023-05-23T02:03:12;101816.44;;;41.33;16.07
61086;BME280;46967;48.876;2.136;2023-05-23T02:05:37;101820.84;;;40.90;16.64
61086;BME280;46967;48.876;2.136;2023-05-23T02:08:03;101822.56;;;41.28;16.29
61086;BME280;46967;48.876;2.136;2023-05-23T02:10:28;101820.59;;;41.54;15.93
61086;BME280;46967;48.876;2.136;2023-05-23T02:12:53;101818.94;;;41.72;15.85
61086;BME280;46967;48.876;2.136;2023-05-23T02:15:19;101815.78;;;41.68;15.85
61086;BME280;46967;48.876;2.136;2023-05-23T02:17:44;101824.16;;;41.73;15.61
61086;BME280;46967;48.876;2.136;2023-05-23T02:20:10;101822.88;;;41.39;15.96
61086;BME280;46967;48.876;2.136;2023-05-23T02:22:35;101818.63;;;41.24;16.26
61086;BME280;46967;48.876;2.136;2023-05-23T02:25:01;101815.66;;;41.81;15.68
61086;BME280;46967;48.876;2.136;2023-05-23T02:27:26;101829.63;;;41.67;15.68
61086;BME280;46967;48.876;2.136;2023-05-23T02:29:52;101826.59;;;41.19;16.08
61086;BME280;46967;48.876;2.136;2023-05-23T02:32:18;101833.69;;;41.02;16.33
61086;BME280;46967;48.876;2.136;2023-05-23T02:34:43;101829.16;;;40.45;16.77
61086;BME280;46967;48.876;2.136;2023-05-23T02:37:12;101828.56;;;40.93;16.23
61086;BME280;46967;48.876;2.136;2023-05-23T02:39:37;101826.00;;;41.17;16.00
61086;BME280;46967;48.876;2.136;2023-05-23T02:42:02;101825.47;;;41.08;16.09
61086;BME280;46967;48.876;2.136;2023-05-23T02:44:28;101822.81;;;41.57;15.84
61086;BME280;46967;48.876;2.136;2023-05-23T02:46:54;101823.50;;;40.97;16.20
61086;BME280;46967;48.876;2.136;2023-05-23T02:49:19;101832.22;;;41.24;16.25
61086;BME280;46967;48.876;2.136;2023-05-23T02:51:45;101828.31;;;40.95;16.28
61086;BME280;46967;48.876;2.136;2023-05-23T02:54:10;101827.50;;;40.95;16.07
61086;BME280;46967;48.876;2.136;2023-05-23T02:56:35;101830.91;;;41.34;15.78
61086;BME280;46967;48.876;2.136;2023-05-23T02:59:01;101822.81;;;41.57;15.75
61086;BME280;46967;48.876;2.136;2023-05-23T03:01:26;101823.47;;;41.41;15.90
61086;BME280;46967;48.876;2.136;2023-05-23T03:03:51;101823.00;;;41.44;15.96
61086;BME280;46967;48.876;2.136;2023-05-23T03:06:17;101819.66;;;41.79;15.63
61086;BME280;46967;48.876;2.136;2023-05-23T03:08:42;101824.09;;;41.92;15.54
61086;BME280;46967;48.876;2.136;2023-05-23T03:11:08;101828.06;;;41.77;15.72
61086;BME280;46967;48.876;2.136;2023-05-23T03:13:34;101833.78;;;41.69;15.79
61086;BME280;46967;48.876;2.136;2023-05-23T03:15:59;101834.84;;;41.13;16.31
61086;BME280;46967;48.876;2.136;2023-05-23T03:18:25;101836.13;;;41.35;15.93
61086;BME280;46967;48.876;2.136;2023-05-23T03:20:50;101824.13;;;41.55;15.73
61086;BME280;46967;48.876;2.136;2023-05-23T03:23:15;101830.94;;;41.45;15.72
61086;BME280;46967;48.876;2.136;2023-05-23T03:25:41;101835.09;;;40.86;16.24
61086;BME280;46967;48.876;2.136;2023-05-23T03:28:07;101846.00;;;40.86;16.27
61086;BME280;46967;48.876;2.136;2023-05-23T03:30:33;101845.19;;;41.29;15.99
61086;BME280;46967;48.876;2.136;2023-05-23T03:32:58;101856.50;;;41.26;15.83
61086;BME280;46967;48.876;2.136;2023-05-23T03:35:23;101849.41;;;41.43;15.75
61086;BME280;46967;48.876;2.136;2023-05-23T03:37:49;101861.50;;;41.29;16.18
61086;BME280;46967;48.876;2.136;2023-05-23T03:40:14;101868.53;;;40.93;16.08
61086;BME280;46967;48.876;2.136;2023-05-23T03:42:39;101859.78;;;40.27;16.63
61086;BME280;46967;48.876;2.136;2023-05-23T03:45:05;101855.38;;;40.90;16.24
61086;BME280;46967;48.876;2.136;2023-05-23T03:47:31;101859.63;;;40.54;16.69
61086;BME280;46967;48.876;2.136;2023-05-23T03:49:56;101858.69;;;40.35;16.75
61086;BME280;46967;48.876;2.136;2023-05-23T03:52:22;101869.94;;;40.07;16.70
61086;BME280;46967;48.876;2.136;2023-05-23T03:54:47;101880.19;;;40.05;16.85
61086;BME280;46967;48.876;2.136;2023-05-23T03:57:12;101876.22;;;40.39;16.46
61086;BME280;46967;48.876;2.136;2023-05-23T03:59:38;101877.53;;;40.30;16.61
61086;BME280;46967;48.876;2.136;2023-05-23T04:02:03;101882.81;;;40.25;16.73
61086;BME280;46967;48.876;2.136;2023-05-23T04:04:29;101888.72;;;39.56;17.10
61086;BME280;46967;48.876;2.136;2023-05-23T04:06:55;101880.00;;;39.99;16.71
61086;BME280;46967;48.876;2.136;2023-05-23T04:09:20;101875.78;;;39.38;17.14
61086;BME280;46967;48.876;2.136;2023-05-23T04:11:46;101882.09;;;39.12;17.63
61086;BME280;46967;48.876;2.136;2023-05-23T04:14:11;101882.84;;;39.66;17.11
61086;BME280;46967;48.876;2.136;2023-05-23T04:16:37;101887.56;;;39.97;16.82
61086;BME280;46967;48.876;2.136;2023-05-23T04:19:06;101888.00;;;39.81;16.92
61086;BME280;46967;48.876;2.136;2023-05-23T04:21:31;101881.69;;;39.08;17.71
61086;BME280;46967;48.876;2.136;2023-05-23T04:23:57;101890.28;;;39.97;16.68
61086;BME280;46967;48.876;2.136;2023-05-23T04:26:22;101887.38;;;40.31;16.35
61086;BME280;46967;48.876;2.136;2023-05-23T04:28:47;101885.66;;;39.91;16.89
61086;BME280;46967;48.876;2.136;2023-05-23T04:31:14;101882.50;;;40.39;16.36
61086;BME280;46967;48.876;2.136;2023-05-23T04:33:39;101891.44;;;40.53;16.17
61086;BME280;46967;48.876;2.136;2023-05-23T04:36:05;101892.38;;;40.66;15.94
61086;BME280;46967;48.876;2.136;2023-05-23T04:38:33;101902.44;;;39.81;16.60
61086;BME280;46967;48.876;2.136;2023-05-23T04:40:59;101901.44;;;39.69;16.76
61086;BME280;46967;48.876;2.136;2023-05-23T04:43:24;101905.06;;;39.95;16.52
61086;BME280;46967;48.876;2.136;2023-05-23T04:45:53;101906.78;;;40.34;16.24
61086;BME280;46967;48.876;2.136;2023-05-23T04:48:19;101905.06;;;40.47;16.33
61086;BME280;46967;48.876;2.136;2023-05-23T04:50:46;101893.56;;;40.45;16.19
61086;BME280;46967;48.876;2.136;2023-05-23T04:53:13;101911.50;;;40.14;16.24
61086;BME280;46967;48.876;2.136;2023-05-23T04:55:38;101904.13;;;40.28;16.06
61086;BME280;46967;48.876;2.136;2023-05-23T04:58:03;101903.81;;;39.91;16.48
61086;BME280;46967;48.876;2.136;2023-05-23T05:00:29;101913.38;;;40.13;16.25
61086;BME280;46967;48.876;2.136;2023-05-23T05:02:54;101911.03;;;39.65;16.79
61086;BME280;46967;48.876;2.136;2023-05-23T05:05:19;101903.94;;;39.71;16.88
61086;BME280;46967;48.876;2.136;2023-05-23T05:07:45;101912.09;;;39.64;17.16
61086;BME280;46967;48.876;2.136;2023-05-23T05:10:10;101904.94;;;40.28;16.42
61086;BME280;46967;48.876;2.136;2023-05-23T05:12:45;101909.72;;;40.33;16.46
61086;BME280;46967;48.876;2.136;2023-05-23T05:15:12;101905.25;;;40.13;16.52
61086;BME280;46967;48.876;2.136;2023-05-23T05:17:38;101911.41;;;40.27;16.35
61086;BME280;46967;48.876;2.136;2023-05-23T05:20:04;101916.28;;;40.18;16.44
61086;BME280;46967;48.876;2.136;2023-05-23T05:22:38;101911.72;;;40.51;16.38
61086;BME280;46967;48.876;2.136;2023-05-23T05:25:08;101902.94;;;40.49;16.24
61086;BME280;46967;48.876;2.136;2023-05-23T05:27:35;101908.56;;;40.54;16.22
61086;BME280;46967;48.876;2.136;2023-05-23T05:30:07;101918.94;;;39.80;16.80
61086;BME280;46967;48.876;2.136;2023-05-23T05:32:33;101916.88;;;39.75;16.88
61086;BME280;46967;48.876;2.136;2023-05-23T05:35:02;101908.59;;;40.47;16.39
61086;BME280;46967;48.876;2.136;2023-05-23T05:37:28;101909.81;;;40.83;16.34
61086;BME280;46967;48.876;2.136;2023-05-23T05:39:54;101924.53;;;40.44;16.38
61086;BME280;46967;48.876;2.136;2023-05-23T05:42:21;101914.75;;;40.68;16.18
61086;BME280;46967;48.876;2.136;2023-05-23T05:44:47;101922.56;;;40.89;16.39
61086;BME280;46967;48.876;2.136;2023-05-23T05:47:13;101928.38;;;40.93;16.13
61086;BME280;46967;48.876;2.136;2023-05-23T05:49:38;101928.34;;;39.77;17.24
61086;BME280;46967;48.876;2.136;2023-05-23T05:52:05;101918.88;;;40.45;16.40
61086;BME280;46967;48.876;2.136;2023-05-23T05:54:31;101934.44;;;40.63;16.40
61086;BME280;46967;48.876;2.136;2023-05-23T05:56:56;101934.28;;;40.58;16.63
61086;BME280;46967;48.876;2.136;2023-05-23T05:59:27;101937.16;;;40.25;16.96
61086;BME280;46967;48.876;2.136;2023-05-23T06:01:53;101943.19;;;40.27;16.84
61086;BME280;46967;48.876;2.136;2023-05-23T06:04:18;101934.59;;;40.68;16.46
61086;BME280;46967;48.876;2.136;2023-05-23T06:06:44;101934.94;;;40.85;16.04
61086;BME280;46967;48.876;2.136;2023-05-23T06:09:09;101939.13;;;40.88;16.22
61086;BME280;46967;48.876;2.136;2023-05-23T06:11:35;101940.25;;;40.67;16.41
61086;BME280;46967;48.876;2.136;2023-05-23T06:14:03;101941.72;;;40.69;16.37
61086;BME280;46967;48.876;2.136;2023-05-23T06:16:32;101941.69;;;41.26;16.09
61086;BME280;46967;48.876;2.136;2023-05-23T06:18:58;101932.16;;;41.17;16.00
61086;BME280;46967;48.876;2.136;2023-05-23T06:21:23;101946.63;;;40.92;16.01
61086;BME280;46967;48.876;2.136;2023-05-23T06:23:48;101940.25;;;40.42;16.80
61086;BME280;46967;48.876;2.136;2023-05-23T06:26:14;101942.31;;;40.71;16.26
61086;BME280;46967;48.876;2.136;2023-05-23T06:28:39;101935.97;;;41.09;16.27
61086;BME280;46967;48.876;2.136;2023-05-23T06:31:05;101944.28;;;40.19;16.83
61086;BME280;46967;48.876;2.136;2023-05-23T06:33:31;101949.97;;;40.11;16.84
61086;BME280;46967;48.876;2.136;2023-05-23T06:35:56;101944.22;;;40.32;16.83
61086;BME280;46967;48.876;2.136;2023-05-23T06:38:22;101950.97;;;40.93;16.26
61086;BME280;46967;48.876;2.136;2023-05-23T06:40:47;101950.91;;;41.25;16.28
61086;BME280;46967;48.876;2.136;2023-05-23T06:43:12;101949.81;;;40.76;16.43
61086;BME280;46967;48.876;2.136;2023-05-23T06:45:38;101960.25;;;40.79;16.60
61086;BME280;46967;48.876;2.136;2023-05-23T06:48:03;101966.28;;;40.56;16.40
61086;BME280;46967;48.876;2.136;2023-05-23T06:50:29;101969.56;;;40.65;16.61
61086;BME280;46967;48.876;2.136;2023-05-23T06:52:55;101965.69;;;40.86;16.36
61086;BME280;46967;48.876;2.136;2023-05-23T06:55:22;101967.94;;;40.96;16.32
61086;BME280;46967;48.876;2.136;2023-05-23T06:57:47;101965.91;;;41.09;16.16
61086;BME280;46967;48.876;2.136;2023-05-23T07:00:16;101970.53;;;41.09;16.29
61086;BME280;46967;48.876;2.136;2023-05-23T07:02:42;101972.75;;;40.16;16.95
61086;BME280;46967;48.876;2.136;2023-05-23T07:05:09;101977.16;;;40.56;16.50
61086;BME280;46967;48.876;2.136;2023-05-23T07:07:35;101982.16;;;40.14;16.65
61086;BME280;46967;48.876;2.136;2023-05-23T07:10:00;101983.66;;;40.03;16.72
61086;BME280;46967;48.876;2.136;2023-05-23T07:12:25;101980.31;;;39.88;16.83
61086;BME280;46967;48.876;2.136;2023-05-23T07:14:51;101982.56;;;40.11;16.88
61086;BME280;46967;48.876;2.136;2023-05-23T07:17:16;101975.03;;;40.13;16.92
61086;BME280;46967;48.876;2.136;2023-05-23T07:19:41;101983.44;;;40.56;16.38
61086;BME280;46967;48.876;2.136;2023-05-23T07:22:06;101990.53;;;40.96;16.16
61086;BME280;46967;48.876;2.136;2023-05-23T07:24:32;101991.28;;;40.71;16.27
61086;BME280;46967;48.876;2.136;2023-05-23T07:26:57;101999.25;;;40.28;16.52
61086;BME280;46967;48.876;2.136;2023-05-23T07:29:23;102001.91;;;40.34;16.55
61086;BME280;46967;48.876;2.136;2023-05-23T07:31:48;101995.88;;;40.32;16.69
61086;BME280;46967;48.876;2.136;2023-05-23T07:34:13;102003.50;;;40.55;16.61
61086;BME280;46967;48.876;2.136;2023-05-23T07:36:39;102001.25;;;40.46;16.58
61086;BME280;46967;48.876;2.136;2023-05-23T07:39:05;102009.06;;;40.74;16.43
61086;BME280;46967;48.876;2.136;2023-05-23T07:41:31;101999.81;;;39.44;17.42
61086;BME280;46967;48.876;2.136;2023-05-23T07:43:56;102013.97;;;40.00;17.03
61086;BME280;46967;48.876;2.136;2023-05-23T07:46:21;102009.31;;;40.66;16.85
61086;BME280;46967;48.876;2.136;2023-05-23T07:48:47;102015.31;;;40.81;16.19
61086;BME280;46967;48.876;2.136;2023-05-23T07:51:12;102016.81;;;40.70;16.67
61086;BME280;46967;48.876;2.136;2023-05-23T07:53:37;102026.63;;;40.71;16.52
61086;BME280;46967;48.876;2.136;2023-05-23T07:56:05;102014.13;;;41.02;16.21
61086;BME280;46967;48.876;2.136;2023-05-23T07:58:30;102011.94;;;41.18;16.01
61086;BME280;46967;48.876;2.136;2023-05-23T08:00:55;102027.22;;;40.80;16.64
61086;BME280;46967;48.876;2.136;2023-05-23T08:03:22;102018.34;;;40.98;16.51
61086;BME280;46967;48.876;2.136;2023-05-23T08:05:47;102017.06;;;41.33;16.29
61086;BME280;46967;48.876;2.136;2023-05-23T08:08:13;102019.19;;;41.24;16.26
61086;BME280;46967;48.876;2.136;2023-05-23T08:10:38;102017.59;;;41.16;16.05
61086;BME280;46967;48.876;2.136;2023-05-23T08:13:04;102016.09;;;41.45;16.00
61086;BME280;46967;48.876;2.136;2023-05-23T08:15:31;102021.38;;;41.40;16.03
61086;BME280;46967;48.876;2.136;2023-05-23T08:17:57;102023.81;;;41.49;16.30
61086;BME280;46967;48.876;2.136;2023-05-23T08:20:24;102031.09;;;41.55;16.14
61086;BME280;46967;48.876;2.136;2023-05-23T08:22:58;102034.56;;;41.62;16.01
61086;BME280;46967;48.876;2.136;2023-05-23T08:25:25;102032.69;;;41.62;16.22
61086;BME280;46967;48.876;2.136;2023-05-23T08:27:50;102031.28;;;41.03;17.11
61086;BME280;46967;48.876;2.136;2023-05-23T08:30:15;102030.00;;;41.37;16.67
61086;BME280;46967;48.876;2.136;2023-05-23T08:32:41;102037.09;;;41.38;16.64
61086;BME280;46967;48.876;2.136;2023-05-23T08:35:06;102022.19;;;41.66;16.51
61086;BME280;46967;48.876;2.136;2023-05-23T08:37:32;102028.97;;;41.82;16.31
61086;BME280;46967;48.876;2.136;2023-05-23T08:39:57;102030.13;;;41.68;16.47
61086;BME280;46967;48.876;2.136;2023-05-23T08:42:23;102031.34;;;42.15;16.04
61086;BME280;46967;48.876;2.136;2023-05-23T08:44:48;102040.16;;;41.49;16.69
61086;BME280;46967;48.876;2.136;2023-05-23T08:47:15;102042.28;;;41.65;16.12
61086;BME280;46967;48.876;2.136;2023-05-23T08:49:42;102040.94;;;41.31;16.39
61086;BME280;46967;48.876;2.136;2023-05-23T08:52:11;102030.91;;;41.24;16.34
61086;BME280;46967;48.876;2.136;2023-05-23T08:54:37;102025.72;;;41.67;16.21
61086;BME280;46967;48.876;2.136;2023-05-23T08:57:03;102033.75;;;41.61;15.93
61086;BME280;46967;48.876;2.136;2023-05-23T08:59:29;102033.13;;;41.09;16.17
61086;BME280;46967;48.876;2.136;2023-05-23T09:01:57;102031.13;;;41.23;16.12
61086;BME280;46967;48.876;2.136;2023-05-23T09:04:22;102035.03;;;41.08;16.51
61086;BME280;46967;48.876;2.136;2023-05-23T09:06:48;102028.00;;;41.70;15.78
61086;BME280;46967;48.876;2.136;2023-05-23T09:09:13;102035.06;;;41.34;16.15
61086;BME280;46967;48.876;2.136;2023-05-23T09:11:40;102038.47;;;41.47;16.05
61086;BME280;46967;48.876;2.136;2023-05-23T09:14:05;102037.94;;;41.39;15.89
61086;BME280;46967;48.876;2.136;2023-05-23T09:16:32;102047.28;;;41.75;15.75
61086;BME280;46967;48.876;2.136;2023-05-23T09:19:13;102041.78;;;41.31;16.01
61086;BME280;46967;48.876;2.136;2023-05-23T09:21:43;102045.34;;;41.25;16.30
61086;BME280;46967;48.876;2.136;2023-05-23T09:24:10;102043.03;;;41.28;16.45
61086;BME280;46967;48.876;2.136;2023-05-23T09:26:36;102050.75;;;41.57;16.32
61086;BME280;46967;48.876;2.136;2023-05-23T09:29:04;102044.03;;;41.85;16.09
61086;BME280;46967;48.876;2.136;2023-05-23T09:31:30;102051.22;;;41.79;16.04
61086;BME280;46967;48.876;2.136;2023-05-23T09:33:57;102051.81;;;41.99;15.98
61086;BME280;46967;48.876;2.136;2023-05-23T09:36:22;102056.59;;;41.60;16.12
61086;BME280;46967;48.876;2.136;2023-05-23T09:38:47;102050.91;;;42.06;15.63
61086;BME280;46967;48.876;2.136;2023-05-23T09:41:13;102046.81;;;41.96;15.80
61086;BME280;46967;48.876;2.136;2023-05-23T09:43:59;102053.19;;;42.46;15.46
61086;BME280;46967;48.876;2.136;2023-05-23T09:46:29;102048.88;;;42.01;15.64
61086;BME280;46967;48.876;2.136;2023-05-23T09:48:54;102058.34;;;42.35;15.25
61086;BME280;46967;48.876;2.136;2023-05-23T09:51:21;102053.16;;;41.46;15.77
61086;BME280;46967;48.876;2.136;2023-05-23T09:53:48;102052.53;;;42.13;15.44
61086;BME280;46967;48.876;2.136;2023-05-23T09:56:17;102055.63;;;41.23;16.08
61086;BME280;46967;48.876;2.136;2023-05-23T09:58:47;102058.19;;;41.68;15.72
61086;BME280;46967;48.876;2.136;2023-05-23T10:01:13;102063.97;;;40.96;16.25
61086;BME280;46967;48.876;2.136;2023-05-23T10:03:44;102055.22;;;40.87;16.55
61086;BME280;46967;48.876;2.136;2023-05-23T10:06:25;102066.13;;;40.29;16.96
61086;BME280;46967;48.876;2.136;2023-05-23T10:09:01;102063.38;;;41.26;15.94
61086;BME280;46967;48.876;2.136;2023-05-23T10:14:03;102061.44;;;41.33;15.88
61086;BME280;46967;48.876;2.136;2023-05-23T10:22:07;102056.66;;;41.79;15.70
61086;BME280;46967;48.876;2.136;2023-05-23T10:24:35;102063.41;;;41.70;15.60
61086;BME280;46967;48.876;2.136;2023-05-23T10:27:01;102061.69;;;41.25;15.80
61086;BME280;46967;48.876;2.136;2023-05-23T10:29:28;102063.56;;;41.31;15.89
61086;BME280;46967;48.876;2.136;2023-05-23T10:31:54;102069.53;;;41.72;15.61
61086;BME280;46967;48.876;2.136;2023-05-23T10:37:43;102065.03;;;40.95;16.05
61086;BME280;46967;48.876;2.136;2023-05-23T10:40:33;102070.50;;;40.36;16.48
61086;BME280;46967;48.876;2.136;2023-05-23T10:43:25;102069.97;;;41.05;16.12
61086;BME280;46967;48.876;2.136;2023-05-23T10:45:53;102059.38;;;41.54;15.42
61086;BME280;46967;48.876;2.136;2023-05-23T10:48:22;102069.97;;;41.62;15.61
61086;BME280;46967;48.876;2.136;2023-05-23T10:51:13;102065.66;;;41.79;15.32
61086;BME280;46967;48.876;2.136;2023-05-23T10:53:43;102055.41;;;41.24;15.62
61086;BME280;46967;48.876;2.136;2023-05-23T10:56:10;102055.63;;;42.17;15.08
61086;BME280;46967;48.876;2.136;2023-05-23T10:58:42;102059.16;;;41.80;15.29
61086;BME280;46967;48.876;2.136;2023-05-23T11:01:08;102050.91;;;42.06;15.17
61086;BME280;46967;48.876;2.136;2023-05-23T11:09:11;102049.84;;;41.88;15.04
61086;BME280;46967;48.876;2.136;2023-05-23T11:14:19;102050.44;;;41.90;15.09
61086;BME280;46967;48.876;2.136;2023-05-23T11:16:55;102049.66;;;42.27;14.56
61086;BME280;46967;48.876;2.136;2023-05-23T11:19:25;102052.53;;;42.13;14.60
61086;BME280;46967;48.876;2.136;2023-05-23T11:22:00;102054.94;;;42.40;14.86
61086;BME280;46967;48.876;2.136;2023-05-23T11:24:50;102048.19;;;41.87;14.84
61086;BME280;46967;48.876;2.136;2023-05-23T11:27:35;102052.50;;;41.51;15.41
61086;BME280;46967;48.876;2.136;2023-05-23T11:30:07;102051.22;;;41.97;15.06
61086;BME280;46967;48.876;2.136;2023-05-23T11:32:34;102045.03;;;42.09;14.91
61086;BME280;46967;48.876;2.136;2023-05-23T11:35:04;102040.66;;;42.26;14.62
61086;BME280;46967;48.876;2.136;2023-05-23T11:37:30;102041.75;;;42.86;14.44
61086;BME280;46967;48.876;2.136;2023-05-23T11:39:57;102032.16;;;42.95;14.43
61086;BME280;46967;48.876;2.136;2023-05-23T11:42:22;102034.13;;;43.30;13.77
61086;BME280;46967;48.876;2.136;2023-05-23T11:44:51;102044.63;;;43.69;13.83
61086;BME280;46967;48.876;2.136;2023-05-23T11:47:17;102041.50;;;43.30;13.46
61086;BME280;46967;48.876;2.136;2023-05-23T11:49:44;102043.25;;;44.19;13.15
61086;BME280;46967;48.876;2.136;2023-05-23T11:52:13;102034.00;;;44.08;12.76
61086;BME280;46967;48.876;2.136;2023-05-23T11:54:40;102027.91;;;45.04;12.81
61086;BME280;46967;48.876;2.136;2023-05-23T11:57:09;102024.72;;;44.95;12.59
61086;BME280;46967;48.876;2.136;2023-05-23T11:59:34;102027.06;;;45.20;12.11
61086;BME280;46967;48.876;2.136;2023-05-23T12:02:01;102025.16;;;45.55;12.17
61086;BME280;46967;48.876;2.136;2023-05-23T12:04:27;102030.56;;;44.99;11.95
61086;BME280;46967;48.876;2.136;2023-05-23T12:06:53;102025.28;;;45.43;12.00
61086;BME280;46967;48.876;2.136;2023-05-23T12:09:18;102023.38;;;45.83;11.74
61086;BME280;46967;48.876;2.136;2023-05-23T12:11:44;102024.56;;;45.92;11.44
61086;BME280;46967;48.876;2.136;2023-05-23T12:14:14;102026.38;;;45.64;11.69
61086;BME280;46967;48.876;2.136;2023-05-23T12:16:42;102024.81;;;44.83;12.22
61086;BME280;46967;48.876;2.136;2023-05-23T12:19:07;102030.16;;;44.21;12.47
61086;BME280;46967;48.876;2.136;2023-05-23T12:21:46;102016.81;;;44.36;12.36
61086;BME280;46967;48.876;2.136;2023-05-23T12:24:19;102021.31;;;44.42;12.57
61086;BME280;46967;48.876;2.136;2023-05-23T12:27:03;102020.16;;;44.55;12.59
61086;BME280;46967;48.876;2.136;2023-05-23T12:29:30;102020.28;;;45.06;12.16
61086;BME280;46967;48.876;2.136;2023-05-23T12:31:59;102014.13;;;45.50;12.24
61086;BME280;46967;48.876;2.136;2023-05-23T12:34:25;102020.28;;;45.79;12.27
61086;BME280;46967;48.876;2.136;2023-05-23T12:36:55;102017.72;;;44.99;12.01
61086;BME280;46967;48.876;2.136;2023-05-23T12:39:25;102007.88;;;46.16;11.42
61086;BME280;46967;48.876;2.136;2023-05-23T12:41:51;102005.78;;;47.10;10.88
61086;BME280;46967;48.876;2.136;2023-05-23T12:44:17;102002.84;;;47.69;10.53
61086;BME280;46967;48.876;2.136;2023-05-23T12:46:43;102001.88;;;47.38;10.27
61086;BME280;46967;48.876;2.136;2023-05-23T12:49:09;101991.09;;;45.90;10.69
61086;BME280;46967;48.876;2.136;2023-05-23T12:51:35;101996.72;;;46.50;11.02
61086;BME280;46967;48.876;2.136;2023-05-23T12:54:00;101993.03;;;45.72;11.24
61086;BME280;46967;48.876;2.136;2023-05-23T12:56:26;101995.53;;;44.38;12.00
61086;BME280;46967;48.876;2.136;2023-05-23T12:58:51;101990.94;;;45.57;11.07
61086;BME280;46967;48.876;2.136;2023-05-23T13:01:19;101987.38;;;46.51;10.46
61086;BME280;46967;48.876;2.136;2023-05-23T13:03:44;101984.53;;;47.38;10.25
61086;BME280;46967;48.876;2.136;2023-05-23T13:06:10;101984.34;;;47.07;10.18
61086;BME280;46967;48.876;2.136;2023-05-23T13:08:36;101978.47;;;47.30;10.33
61086;BME280;46967;48.876;2.136;2023-05-23T13:11:01;101980.19;;;45.95;10.80
61086;BME280;46967;48.876;2.136;2023-05-23T13:13:27;101986.16;;;46.14;10.37